sensor_id;sensor_type;location;lat;lon;timestamp;temperature;humidity
11772;DHT22;12556;55.748;13.194;2023-02-22T00:01:40;1.30;99.90
11772;DHT22;12556;55.748;13.194;2023-02-22T00:04:15;1.30;99.90
11772;DHT22;12556;55.748;13.194;2023-02-22T00:06:47;1.30;99.90
11772;DHT22;12556;55.748;13.194;2023-02-22T00:09:15;1.30;99.90
11772;DHT22;12556;55.748;13.194;2023-02-22T00:11:46;1.30;99.90
11772;DHT22;12556;55.748;13.194;2023-02-22T00:14:13;1.30;99.90
11772;DHT22;12556;55.748;13.194;2023-02-22T00:16:40;1.30;99.90
11772;DHT22;12556;55.748;13.194;2023-02-22T00:19:06;1.30;99.90
11772;DHT22;12556;55.748;13.194;2023-02-22T00:21:35;1.30;99.90
11772;DHT22;12556;55.748;13.194;2023-02-22T00:24:04;1.30;99.90
11772;DHT22;12556;55.748;13.194;2023-02-22T00:26:48;1.30;99.90
11772;DHT22;12556;55.748;13.194;2023-02-22T00:29:15;1.30;99.90
11772;DHT22;12556;55.748;13.194;2023-02-22T00:31:42;1.30;99.90
11772;DHT22;12556;55.748;13.194;2023-02-22T00:34:09;1.30;99.90
11772;DHT22;12556;55.748;13.194;2023-02-22T00:36:36;1.30;99.90
11772;DHT22;12556;55.748;13.194;2023-02-22T00:39:04;1.30;99.90
11772;DHT22;12556;55.748;13.194;2023-02-22T00:41:32;1.30;99.90
11772;DHT22;12556;55.748;13.194;2023-02-22T00:43:59;1.30;99.90
11772;DHT22;12556;55.748;13.194;2023-02-22T00:46:25;1.30;99.90
11772;DHT22;12556;55.748;13.194;2023-02-22T00:48:52;1.30;99.90
11772;DHT22;12556;55.748;13.194;2023-02-22T00:51:19;1.30;99.90
11772;DHT22;12556;55.748;13.194;2023-02-22T00:53:46;1.30;99.90
11772;DHT22;12556;55.748;13.194;2023-02-22T00:56:15;1.30;99.90
11772;DHT22;12556;55.748;13.194;2023-02-22T00:58:42;1.30;99.90
11772;DHT22;12556;55.748;13.194;2023-02-22T01:01:10;1.30;99.90
11772;DHT22;12556;55.748;13.194;2023-02-22T01:03:36;1.30;99.90
11772;DHT22;12556;55.748;13.194;2023-02-22T01:06:06;1.30;99.90
11772;DHT22;12556;55.748;13.194;2023-02-22T01:08:33;1.30;99.90
11772;DHT22;12556;55.748;13.194;2023-02-22T01:10:59;1.30;99.90
11772;DHT22;12556;55.748;13.194;2023-02-22T01:13:28;1.30;99.90
11772;DHT22;12556;55.748;13.194;2023-02-22T01:15:55;1.30;99.90
11772;DHT22;12556;55.748;13.194;2023-02-22T01:18:22;1.30;99.90
11772;DHT22;12556;55.748;13.194;2023-02-22T01:20:50;1.30;99.90
11772;DHT22;12556;55.748;13.194;2023-02-22T01:23:17;1.20;99.90
11772;DHT22;12556;55.748;13.194;2023-02-22T01:25:44;1.20;99.90
11772;DHT22;12556;55.748;13.194;2023-02-22T01:28:11;1.20;99.90
11772;DHT22;12556;55.748;13.194;2023-02-22T01:30:40;1.20;99.90
11772;DHT22;12556;55.748;13.194;2023-02-22T01:33:07;1.20;99.90
11772;DHT22;12556;55.748;13.194;2023-02-22T01:35:35;1.20;99.90
11772;DHT22;12556;55.748;13.194;2023-02-22T01:38:03;1.20;99.90
11772;DHT22;12556;55.748;13.194;2023-02-22T01:40:31;1.10;99.90
11772;DHT22;12556;55.748;13.194;2023-02-22T01:43:01;1.10;99.90
11772;DHT22;12556;55.748;13.194;2023-02-22T01:45:49;1.10;99.90
11772;DHT22;12556;55.748;13.194;2023-02-22T01:48:23;1.10;99.90
11772;DHT22;12556;55.748;13.194;2023-02-22T01:50:54;1.00;99.90
11772;DHT22;12556;55.748;13.194;2023-02-22T01:53:25;1.00;99.90
11772;DHT22;12556;55.748;13.194;2023-02-22T01:55:52;1.00;99.90
11772;DHT22;12556;55.748;13.194;2023-02-22T01:58:22;1.00;99.90
11772;DHT22;12556;55.748;13.194;2023-02-22T02:00:51;1.00;99.90
11772;DHT22;12556;55.748;13.194;2023-02-22T02:03:19;1.00;99.90
11772;DHT22;12556;55.748;13.194;2023-02-22T02:05:49;1.00;99.90
11772;DHT22;12556;55.748;13.194;2023-02-22T02:08:23;1.00;99.90
11772;DHT22;12556;55.748;13.194;2023-02-22T02:10:54;1.00;99.90
11772;DHT22;12556;55.748;13.194;2023-02-22T02:13:23;0.90;99.90
11772;DHT22;12556;55.748;13.194;2023-02-22T02:15:53;0.90;99.90
11772;DHT22;12556;55.748;13.194;2023-02-22T02:18:21;0.90;99.90
11772;DHT22;12556;55.748;13.194;2023-02-22T02:24:11;0.90;99.90
11772;DHT22;12556;55.748;13.194;2023-02-22T02:26:59;0.90;99.90
11772;DHT22;12556;55.748;13.194;2023-02-22T02:32:43;0.90;99.90
11772;DHT22;12556;55.748;13.194;2023-02-22T02:35:20;0.90;99.90
11772;DHT22;12556;55.748;13.194;2023-02-22T02:37:56;0.80;99.90
11772;DHT22;12556;55.748;13.194;2023-02-22T02:40:30;0.90;99.90
11772;DHT22;12556;55.748;13.194;2023-02-22T02:43:04;0.90;99.90
11772;DHT22;12556;55.748;13.194;2023-02-22T02:45:36;0.80;99.90
11772;DHT22;12556;55.748;13.194;2023-02-22T02:48:08;0.80;99.90
11772;DHT22;12556;55.748;13.194;2023-02-22T02:50:41;0.80;99.90
11772;DHT22;12556;55.748;13.194;2023-02-22T02:53:10;0.80;99.90
11772;DHT22;12556;55.748;13.194;2023-02-22T02:55:38;0.80;99.90
11772;DHT22;12556;55.748;13.194;2023-02-22T02:58:06;0.70;99.90
11772;DHT22;12556;55.748;13.194;2023-02-22T03:00:36;0.70;99.90
11772;DHT22;12556;55.748;13.194;2023-02-22T03:03:18;0.70;99.90
11772;DHT22;12556;55.748;13.194;2023-02-22T03:06:05;0.70;99.90
11772;DHT22;12556;55.748;13.194;2023-02-22T03:08:40;0.70;99.90
11772;DHT22;12556;55.748;13.194;2023-02-22T03:11:11;0.60;99.90
11772;DHT22;12556;55.748;13.194;2023-02-22T03:13:48;1.60;99.90
11772;DHT22;12556;55.748;13.194;2023-02-22T03:16:21;0.60;99.90
11772;DHT22;12556;55.748;13.194;2023-02-22T03:18:56;0.60;99.90
11772;DHT22;12556;55.748;13.194;2023-02-22T03:21:30;0.60;99.90
11772;DHT22;12556;55.748;13.194;2023-02-22T03:24:02;0.60;99.90
11772;DHT22;12556;55.748;13.194;2023-02-22T03:26:36;0.60;99.90
11772;DHT22;12556;55.748;13.194;2023-02-22T03:29:07;0.60;99.90
11772;DHT22;12556;55.748;13.194;2023-02-22T03:31:40;0.60;99.90
11772;DHT22;12556;55.748;13.194;2023-02-22T03:34:12;0.60;99.90
11772;DHT22;12556;55.748;13.194;2023-02-22T03:36:44;0.60;99.90
11772;DHT22;12556;55.748;13.194;2023-02-22T03:39:15;0.60;99.90
11772;DHT22;12556;55.748;13.194;2023-02-22T03:41:47;0.60;99.90
11772;DHT22;12556;55.748;13.194;2023-02-22T03:44:18;0.60;99.90
11772;DHT22;12556;55.748;13.194;2023-02-22T03:46:47;0.60;99.90
11772;DHT22;12556;55.748;13.194;2023-02-22T03:49:22;0.60;99.90
11772;DHT22;12556;55.748;13.194;2023-02-22T03:51:51;0.60;99.90
11772;DHT22;12556;55.748;13.194;2023-02-22T03:54:18;0.70;99.90
11772;DHT22;12556;55.748;13.194;2023-02-22T03:56:52;0.60;99.90
11772;DHT22;12556;55.748;13.194;2023-02-22T03:59:20;0.70;99.90
11772;DHT22;12556;55.748;13.194;2023-02-22T04:01:50;0.70;99.90
11772;DHT22;12556;55.748;13.194;2023-02-22T04:04:21;0.70;99.90
11772;DHT22;12556;55.748;13.194;2023-02-22T04:06:49;0.70;99.90
11772;DHT22;12556;55.748;13.194;2023-02-22T04:09:17;0.70;99.90
11772;DHT22;12556;55.748;13.194;2023-02-22T04:11:44;0.70;99.90
11772;DHT22;12556;55.748;13.194;2023-02-22T04:14:12;0.80;99.90
11772;DHT22;12556;55.748;13.194;2023-02-22T04:16:39;0.80;99.90
11772;DHT22;12556;55.748;13.194;2023-02-22T04:19:06;0.80;99.90
11772;DHT22;12556;55.748;13.194;2023-02-22T04:21:34;0.80;99.90
11772;DHT22;12556;55.748;13.194;2023-02-22T04:24:01;0.80;99.90
11772;DHT22;12556;55.748;13.194;2023-02-22T04:26:28;0.80;99.90
11772;DHT22;12556;55.748;13.194;2023-02-22T04:28:55;0.80;99.90
11772;DHT22;12556;55.748;13.194;2023-02-22T04:31:22;0.90;99.90
11772;DHT22;12556;55.748;13.194;2023-02-22T04:33:49;0.80;99.90
11772;DHT22;12556;55.748;13.194;2023-02-22T04:36:15;0.80;99.90
11772;DHT22;12556;55.748;13.194;2023-02-22T04:38:44;0.80;99.90
11772;DHT22;12556;55.748;13.194;2023-02-22T04:41:11;0.80;99.90
11772;DHT22;12556;55.748;13.194;2023-02-22T04:43:38;0.90;99.90
11772;DHT22;12556;55.748;13.194;2023-02-22T04:46:05;0.90;99.90
11772;DHT22;12556;55.748;13.194;2023-02-22T04:48:32;0.90;99.90
11772;DHT22;12556;55.748;13.194;2023-02-22T04:50:59;0.90;99.90
11772;DHT22;12556;55.748;13.194;2023-02-22T04:53:26;0.80;99.90
11772;DHT22;12556;55.748;13.194;2023-02-22T04:55:54;0.90;99.90
11772;DHT22;12556;55.748;13.194;2023-02-22T04:58:21;0.90;99.90
11772;DHT22;12556;55.748;13.194;2023-02-22T05:00:48;0.90;99.90
11772;DHT22;12556;55.748;13.194;2023-02-22T05:03:15;0.90;99.90
11772;DHT22;12556;55.748;13.194;2023-02-22T05:05:42;0.90;99.90
11772;DHT22;12556;55.748;13.194;2023-02-22T05:08:09;0.90;99.90
11772;DHT22;12556;55.748;13.194;2023-02-22T05:10:35;1.00;99.90
11772;DHT22;12556;55.748;13.194;2023-02-22T05:13:04;1.00;99.90
11772;DHT22;12556;55.748;13.194;2023-02-22T05:15:31;1.00;99.90
11772;DHT22;12556;55.748;13.194;2023-02-22T05:17:58;1.00;99.90
11772;DHT22;12556;55.748;13.194;2023-02-22T05:20:26;1.00;99.90
11772;DHT22;12556;55.748;13.194;2023-02-22T05:22:53;1.00;99.90
11772;DHT22;12556;55.748;13.194;2023-02-22T05:25:20;1.00;99.90
11772;DHT22;12556;55.748;13.194;2023-02-22T05:27:51;1.00;99.90
11772;DHT22;12556;55.748;13.194;2023-02-22T05:30:21;1.00;99.90
11772;DHT22;12556;55.748;13.194;2023-02-22T05:32:49;1.00;99.90
11772;DHT22;12556;55.748;13.194;2023-02-22T05:35:16;1.00;99.90
11772;DHT22;12556;55.748;13.194;2023-02-22T05:37:43;1.00;99.90
11772;DHT22;12556;55.748;13.194;2023-02-22T05:40:11;1.10;99.90
11772;DHT22;12556;55.748;13.194;2023-02-22T05:42:39;1.00;99.90
11772;DHT22;12556;55.748;13.194;2023-02-22T05:45:06;1.00;99.90
11772;DHT22;12556;55.748;13.194;2023-02-22T05:47:35;1.00;99.90
11772;DHT22;12556;55.748;13.194;2023-02-22T05:50:02;1.00;99.90
11772;DHT22;12556;55.748;13.194;2023-02-22T05:52:29;1.00;99.90
11772;DHT22;12556;55.748;13.194;2023-02-22T05:54:56;1.00;99.90
11772;DHT22;12556;55.748;13.194;2023-02-22T05:57:23;1.00;99.90
11772;DHT22;12556;55.748;13.194;2023-02-22T05:59:50;1.00;99.90
11772;DHT22;12556;55.748;13.194;2023-02-22T06:02:17;1.00;99.90
11772;DHT22;12556;55.748;13.194;2023-02-22T06:04:45;1.00;99.90
11772;DHT22;12556;55.748;13.194;2023-02-22T06:07:13;1.00;99.90
11772;DHT22;12556;55.748;13.194;2023-02-22T06:09:40;1.00;99.90
11772;DHT22;12556;55.748;13.194;2023-02-22T06:12:08;1.00;99.90
11772;DHT22;12556;55.748;13.194;2023-02-22T06:14:35;1.00;99.90
11772;DHT22;12556;55.748;13.194;2023-02-22T06:17:02;1.00;99.90
11772;DHT22;12556;55.748;13.194;2023-02-22T06:19:31;1.00;99.90
11772;DHT22;12556;55.748;13.194;2023-02-22T06:21:59;1.00;99.90
11772;DHT22;12556;55.748;13.194;2023-02-22T06:24:27;1.00;99.90
11772;DHT22;12556;55.748;13.194;2023-02-22T06:26:55;1.10;99.90
11772;DHT22;12556;55.748;13.194;2023-02-22T06:29:22;1.10;99.90
11772;DHT22;12556;55.748;13.194;2023-02-22T06:31:49;1.00;99.90
11772;DHT22;12556;55.748;13.194;2023-02-22T06:34:17;1.10;99.90
11772;DHT22;12556;55.748;13.194;2023-02-22T06:36:44;1.10;99.90
11772;DHT22;12556;55.748;13.194;2023-02-22T06:39:14;1.00;99.90
11772;DHT22;12556;55.748;13.194;2023-02-22T06:41:42;1.10;99.90
11772;DHT22;12556;55.748;13.194;2023-02-22T06:44:09;1.10;99.90
11772;DHT22;12556;55.748;13.194;2023-02-22T06:46:37;1.10;99.90
11772;DHT22;12556;55.748;13.194;2023-02-22T06:49:04;1.10;99.90
11772;DHT22;12556;55.748;13.194;2023-02-22T06:51:34;1.10;99.90
11772;DHT22;12556;55.748;13.194;2023-02-22T06:54:03;1.10;99.90
11772;DHT22;12556;55.748;13.194;2023-02-22T06:56:31;1.10;99.90
11772;DHT22;12556;55.748;13.194;2023-02-22T06:58:58;1.20;99.90
11772;DHT22;12556;55.748;13.194;2023-02-22T07:01:26;1.20;99.90
11772;DHT22;12556;55.748;13.194;2023-02-22T07:03:53;1.20;99.90
11772;DHT22;12556;55.748;13.194;2023-02-22T07:06:20;1.30;99.90
11772;DHT22;12556;55.748;13.194;2023-02-22T07:08:47;1.30;99.90
11772;DHT22;12556;55.748;13.194;2023-02-22T07:11:15;1.40;99.90
11772;DHT22;12556;55.748;13.194;2023-02-22T07:13:43;1.50;99.90
11772;DHT22;12556;55.748;13.194;2023-02-22T07:16:10;1.50;99.90
11772;DHT22;12556;55.748;13.194;2023-02-22T07:18:37;1.70;99.90
11772;DHT22;12556;55.748;13.194;2023-02-22T07:21:05;1.70;99.90
11772;DHT22;12556;55.748;13.194;2023-02-22T07:23:32;1.80;99.90
11772;DHT22;12556;55.748;13.194;2023-02-22T07:26:00;1.90;99.90
11772;DHT22;12556;55.748;13.194;2023-02-22T07:28:27;2.00;99.90
11772;DHT22;12556;55.748;13.194;2023-02-22T07:30:55;2.20;99.90
11772;DHT22;12556;55.748;13.194;2023-02-22T07:33:23;2.30;99.90
11772;DHT22;12556;55.748;13.194;2023-02-22T07:35:51;2.40;99.90
11772;DHT22;12556;55.748;13.194;2023-02-22T07:38:18;2.50;99.90
11772;DHT22;12556;55.748;13.194;2023-02-22T07:40:46;2.60;99.90
11772;DHT22;12556;55.748;13.194;2023-02-22T07:43:15;2.60;99.90
11772;DHT22;12556;55.748;13.194;2023-02-22T07:45:42;2.70;99.90
11772;DHT22;12556;55.748;13.194;2023-02-22T07:48:12;2.70;99.90
11772;DHT22;12556;55.748;13.194;2023-02-22T07:50:39;2.80;99.90
11772;DHT22;12556;55.748;13.194;2023-02-22T07:53:09;2.80;99.90
11772;DHT22;12556;55.748;13.194;2023-02-22T07:55:37;2.90;99.90
11772;DHT22;12556;55.748;13.194;2023-02-22T07:58:05;2.90;99.90
11772;DHT22;12556;55.748;13.194;2023-02-22T08:00:34;2.90;99.90
11772;DHT22;12556;55.748;13.194;2023-02-22T08:03:03;3.00;99.90
11772;DHT22;12556;55.748;13.194;2023-02-22T08:05:34;3.00;99.90
11772;DHT22;12556;55.748;13.194;2023-02-22T08:08:01;3.00;99.90
11772;DHT22;12556;55.748;13.194;2023-02-22T08:10:28;3.10;99.90
11772;DHT22;12556;55.748;13.194;2023-02-22T08:12:56;3.10;99.90
11772;DHT22;12556;55.748;13.194;2023-02-22T08:15:26;3.20;99.90
11772;DHT22;12556;55.748;13.194;2023-02-22T08:17:54;3.20;99.90
11772;DHT22;12556;55.748;13.194;2023-02-22T08:20:21;3.20;99.90
11772;DHT22;12556;55.748;13.194;2023-02-22T08:22:50;3.20;99.90
11772;DHT22;12556;55.748;13.194;2023-02-22T08:25:18;3.30;99.90
11772;DHT22;12556;55.748;13.194;2023-02-22T08:27:46;3.30;99.90
11772;DHT22;12556;55.748;13.194;2023-02-22T08:30:15;3.30;99.90
11772;DHT22;12556;55.748;13.194;2023-02-22T08:32:44;3.30;99.90
11772;DHT22;12556;55.748;13.194;2023-02-22T08:35:11;3.30;99.90
11772;DHT22;12556;55.748;13.194;2023-02-22T08:37:41;3.40;99.90
11772;DHT22;12556;55.748;13.194;2023-02-22T08:40:10;3.40;99.90
11772;DHT22;12556;55.748;13.194;2023-02-22T08:42:37;3.50;99.90
11772;DHT22;12556;55.748;13.194;2023-02-22T08:45:05;3.50;99.90
11772;DHT22;12556;55.748;13.194;2023-02-22T08:47:32;3.50;99.90
11772;DHT22;12556;55.748;13.194;2023-02-22T08:49:59;3.60;99.90
11772;DHT22;12556;55.748;13.194;2023-02-22T08:52:27;3.60;99.90
11772;DHT22;12556;55.748;13.194;2023-02-22T08:54:54;3.60;99.90
11772;DHT22;12556;55.748;13.194;2023-02-22T08:57:23;3.70;99.90
11772;DHT22;12556;55.748;13.194;2023-02-22T08:59:49;3.70;99.90
11772;DHT22;12556;55.748;13.194;2023-02-22T09:02:20;3.80;99.90
11772;DHT22;12556;55.748;13.194;2023-02-22T09:04:47;3.90;99.90
11772;DHT22;12556;55.748;13.194;2023-02-22T09:07:14;3.90;99.90
11772;DHT22;12556;55.748;13.194;2023-02-22T09:09:42;3.90;99.90
11772;DHT22;12556;55.748;13.194;2023-02-22T09:12:09;4.00;99.90
11772;DHT22;12556;55.748;13.194;2023-02-22T09:14:37;4.10;99.90
11772;DHT22;12556;55.748;13.194;2023-02-22T09:17:04;4.10;99.90
11772;DHT22;12556;55.748;13.194;2023-02-22T09:19:31;4.20;99.90
11772;DHT22;12556;55.748;13.194;2023-02-22T09:21:58;4.20;99.90
11772;DHT22;12556;55.748;13.194;2023-02-22T09:24:26;4.30;99.90
11772;DHT22;12556;55.748;13.194;2023-02-22T09:26:53;4.30;99.90
11772;DHT22;12556;55.748;13.194;2023-02-22T09:29:21;4.40;99.90
11772;DHT22;12556;55.748;13.194;2023-02-22T09:31:51;4.50;99.90
11772;DHT22;12556;55.748;13.194;2023-02-22T09:34:20;4.60;99.90
11772;DHT22;12556;55.748;13.194;2023-02-22T09:36:48;4.60;99.90
11772;DHT22;12556;55.748;13.194;2023-02-22T09:39:16;4.70;99.90
11772;DHT22;12556;55.748;13.194;2023-02-22T09:41:50;4.70;99.90
11772;DHT22;12556;55.748;13.194;2023-02-22T09:44:25;4.70;99.90
11772;DHT22;12556;55.748;13.194;2023-02-22T09:46:56;4.80;99.90
11772;DHT22;12556;55.748;13.194;2023-02-22T09:49:28;4.80;99.90
11772;DHT22;12556;55.748;13.194;2023-02-22T09:51:59;4.80;99.90
11772;DHT22;12556;55.748;13.194;2023-02-22T09:54:32;4.80;99.90
11772;DHT22;12556;55.748;13.194;2023-02-22T09:57:02;4.90;99.90
11772;DHT22;12556;55.748;13.194;2023-02-22T09:59:34;4.90;99.90
11772;DHT22;12556;55.748;13.194;2023-02-22T10:02:25;5.00;99.90
11772;DHT22;12556;55.748;13.194;2023-02-22T10:04:56;5.00;99.90
11772;DHT22;12556;55.748;13.194;2023-02-22T10:07:29;5.00;99.90
11772;DHT22;12556;55.748;13.194;2023-02-22T10:09:58;5.10;99.90
11772;DHT22;12556;55.748;13.194;2023-02-22T10:12:38;5.10;99.90
11772;DHT22;12556;55.748;13.194;2023-02-22T10:15:26;5.20;99.90
11772;DHT22;12556;55.748;13.194;2023-02-22T10:18:04;5.20;99.90
11772;DHT22;12556;55.748;13.194;2023-02-22T10:20:46;5.30;99.90
11772;DHT22;12556;55.748;13.194;2023-02-22T10:23:21;5.30;99.90
11772;DHT22;12556;55.748;13.194;2023-02-22T10:25:55;5.30;99.90
11772;DHT22;12556;55.748;13.194;2023-02-22T10:28:25;5.40;99.90
11772;DHT22;12556;55.748;13.194;2023-02-22T10:30:57;5.40;99.90
11772;DHT22;12556;55.748;13.194;2023-02-22T10:33:30;5.40;99.90
11772;DHT22;12556;55.748;13.194;2023-02-22T10:35:59;5.50;99.90
11772;DHT22;12556;55.748;13.194;2023-02-22T10:38:29;5.60;99.90
11772;DHT22;12556;55.748;13.194;2023-02-22T10:40:59;5.70;99.90
11772;DHT22;12556;55.748;13.194;2023-02-22T10:43:27;5.70;99.90
11772;DHT22;12556;55.748;13.194;2023-02-22T10:45:57;5.80;99.90
11772;DHT22;12556;55.748;13.194;2023-02-22T10:48:28;5.80;99.90
11772;DHT22;12556;55.748;13.194;2023-02-22T10:50:59;5.90;99.90
11772;DHT22;12556;55.748;13.194;2023-02-22T10:53:27;5.90;99.90
11772;DHT22;12556;55.748;13.194;2023-02-22T10:56:08;6.00;99.90
11772;DHT22;12556;55.748;13.194;2023-02-22T10:58:43;6.00;99.90
11772;DHT22;12556;55.748;13.194;2023-02-22T11:01:25;6.00;99.90
11772;DHT22;12556;55.748;13.194;2023-02-22T11:04:04;6.00;99.90
11772;DHT22;12556;55.748;13.194;2023-02-22T11:06:32;6.00;99.90
11772;DHT22;12556;55.748;13.194;2023-02-22T11:09:08;5.90;99.90
11772;DHT22;12556;55.748;13.194;2023-02-22T11:11:37;5.90;99.90
11772;DHT22;12556;55.748;13.194;2023-02-22T11:14:04;6.00;99.90
11772;DHT22;12556;55.748;13.194;2023-02-22T11:16:37;6.00;99.90
11772;DHT22;12556;55.748;13.194;2023-02-22T11:19:11;6.00;99.90
11772;DHT22;12556;55.748;13.194;2023-02-22T11:21:42;6.10;99.90
11772;DHT22;12556;55.748;13.194;2023-02-22T11:24:11;6.10;99.90
11772;DHT22;12556;55.748;13.194;2023-02-22T11:26:41;6.10;99.90
11772;DHT22;12556;55.748;13.194;2023-02-22T11:29:11;6.10;99.90
11772;DHT22;12556;55.748;13.194;2023-02-22T11:31:42;6.20;99.90
11772;DHT22;12556;55.748;13.194;2023-02-22T11:34:27;6.20;99.90
11772;DHT22;12556;55.748;13.194;2023-02-22T11:36:54;6.30;99.90
11772;DHT22;12556;55.748;13.194;2023-02-22T11:39:24;6.30;99.90
11772;DHT22;12556;55.748;13.194;2023-02-22T11:41:51;6.30;99.90
11772;DHT22;12556;55.748;13.194;2023-02-22T11:44:23;6.30;99.90
11772;DHT22;12556;55.748;13.194;2023-02-22T11:46:51;6.30;99.90
11772;DHT22;12556;55.748;13.194;2023-02-22T11:49:22;6.40;99.90
11772;DHT22;12556;55.748;13.194;2023-02-22T11:52:15;6.50;99.90
11772;DHT22;12556;55.748;13.194;2023-02-22T11:54:55;6.50;99.90
11772;DHT22;12556;55.748;13.194;2023-02-22T11:57:51;6.50;99.90
11772;DHT22;12556;55.748;13.194;2023-02-22T12:00:24;6.50;99.90
11772;DHT22;12556;55.748;13.194;2023-02-22T12:03:12;6.50;99.90
11772;DHT22;12556;55.748;13.194;2023-02-22T12:05:57;6.50;99.90
11772;DHT22;12556;55.748;13.194;2023-02-22T12:08:36;6.60;99.90
11772;DHT22;12556;55.748;13.194;2023-02-22T12:11:11;6.60;99.90
11772;DHT22;12556;55.748;13.194;2023-02-22T12:14:00;6.60;99.90
11772;DHT22;12556;55.748;13.194;2023-02-22T12:16:37;6.60;99.90
11772;DHT22;12556;55.748;13.194;2023-02-22T12:19:14;6.70;99.90
11772;DHT22;12556;55.748;13.194;2023-02-22T12:21:53;6.60;99.90
11772;DHT22;12556;55.748;13.194;2023-02-22T12:24:24;6.70;99.90
11772;DHT22;12556;55.748;13.194;2023-02-22T12:26:55;6.70;99.90
11772;DHT22;12556;55.748;13.194;2023-02-22T12:29:27;6.70;99.90
11772;DHT22;12556;55.748;13.194;2023-02-22T12:32:00;6.70;99.90
11772;DHT22;12556;55.748;13.194;2023-02-22T12:34:35;6.70;99.90
11772;DHT22;12556;55.748;13.194;2023-02-22T12:37:11;6.60;99.90
11772;DHT22;12556;55.748;13.194;2023-02-22T12:39:48;6.70;99.90
11772;DHT22;12556;55.748;13.194;2023-02-22T12:42:21;6.70;99.90
11772;DHT22;12556;55.748;13.194;2023-02-22T12:44:54;6.80;99.90
11772;DHT22;12556;55.748;13.194;2023-02-22T12:47:30;6.90;99.90
11772;DHT22;12556;55.748;13.194;2023-02-22T12:50:05;7.00;99.90
11772;DHT22;12556;55.748;13.194;2023-02-22T12:52:42;7.00;99.90
11772;DHT22;12556;55.748;13.194;2023-02-22T12:55:15;7.00;99.90
11772;DHT22;12556;55.748;13.194;2023-02-22T12:57:48;7.00;99.90
11772;DHT22;12556;55.748;13.194;2023-02-22T13:00:20;7.00;99.90
11772;DHT22;12556;55.748;13.194;2023-02-22T13:02:57;7.10;99.90
11772;DHT22;12556;55.748;13.194;2023-02-22T13:05:29;7.10;99.90
11772;DHT22;12556;55.748;13.194;2023-02-22T13:08:15;7.20;99.90
11772;DHT22;12556;55.748;13.194;2023-02-22T13:11:03;7.20;99.90
11772;DHT22;12556;55.748;13.194;2023-02-22T13:13:37;7.20;99.90
11772;DHT22;12556;55.748;13.194;2023-02-22T13:16:14;7.20;99.90
11772;DHT22;12556;55.748;13.194;2023-02-22T13:18:52;7.20;99.90
11772;DHT22;12556;55.748;13.194;2023-02-22T13:21:27;7.20;99.90
11772;DHT22;12556;55.748;13.194;2023-02-22T13:23:58;7.20;99.90
11772;DHT22;12556;55.748;13.194;2023-02-22T13:26:37;7.20;99.90
11772;DHT22;12556;55.748;13.194;2023-02-22T13:29:11;7.20;99.90
11772;DHT22;12556;55.748;13.194;2023-02-22T13:32:09;7.20;99.90
11772;DHT22;12556;55.748;13.194;2023-02-22T13:35:01;7.20;99.90
11772;DHT22;12556;55.748;13.194;2023-02-22T13:37:50;7.10;99.90
11772;DHT22;12556;55.748;13.194;2023-02-22T13:40:41;7.10;99.90
11772;DHT22;12556;55.748;13.194;2023-02-22T13:43:34;7.10;99.90
11772;DHT22;12556;55.748;13.194;2023-02-22T13:46:35;7.00;99.90
11772;DHT22;12556;55.748;13.194;2023-02-22T13:49:41;7.00;99.90
11772;DHT22;12556;55.748;13.194;2023-02-22T13:52:13;6.90;99.90
11772;DHT22;12556;55.748;13.194;2023-02-22T13:54:43;6.80;99.90
11772;DHT22;12556;55.748;13.194;2023-02-22T13:57:20;6.80;99.90
11772;DHT22;12556;55.748;13.194;2023-02-22T14:00:23;6.80;99.90
11772;DHT22;12556;55.748;13.194;2023-02-22T14:03:02;6.70;99.90
11772;DHT22;12556;55.748;13.194;2023-02-22T14:05:36;6.70;99.90
11772;DHT22;12556;55.748;13.194;2023-02-22T14:08:44;6.60;99.90
11772;DHT22;12556;55.748;13.194;2023-02-22T14:14:21;6.60;99.90
11772;DHT22;12556;55.748;13.194;2023-02-22T14:17:21;6.50;99.90
11772;DHT22;12556;55.748;13.194;2023-02-22T14:20:03;6.50;99.90
11772;DHT22;12556;55.748;13.194;2023-02-22T14:22:40;6.50;99.90
11772;DHT22;12556;55.748;13.194;2023-02-22T14:28:35;6.50;99.90
11772;DHT22;12556;55.748;13.194;2023-02-22T14:31:07;6.50;99.90
11772;DHT22;12556;55.748;13.194;2023-02-22T14:34:01;6.50;99.90
11772;DHT22;12556;55.748;13.194;2023-02-22T14:36:33;6.50;99.90
11772;DHT22;12556;55.748;13.194;2023-02-22T14:39:15;6.40;99.90
11772;DHT22;12556;55.748;13.194;2023-02-22T14:41:48;6.40;99.90
11772;DHT22;12556;55.748;13.194;2023-02-22T14:44:22;6.40;99.90
11772;DHT22;12556;55.748;13.194;2023-02-22T14:46:52;6.30;99.90
11772;DHT22;12556;55.748;13.194;2023-02-22T14:49:24;6.30;99.90
11772;DHT22;12556;55.748;13.194;2023-02-22T14:51:56;6.20;99.90
11772;DHT22;12556;55.748;13.194;2023-02-22T14:54:28;6.10;99.90
11772;DHT22;12556;55.748;13.194;2023-02-22T14:57:04;6.00;99.90
11772;DHT22;12556;55.748;13.194;2023-02-22T14:59:51;5.90;99.90
11772;DHT22;12556;55.748;13.194;2023-02-22T15:02:22;5.80;99.90
11772;DHT22;12556;55.748;13.194;2023-02-22T15:04:53;5.70;99.90
11772;DHT22;12556;55.748;13.194;2023-02-22T15:07:23;5.70;99.90
11772;DHT22;12556;55.748;13.194;2023-02-22T15:10:04;6.00;99.90
11772;DHT22;12556;55.748;13.194;2023-02-22T15:12:31;5.50;99.90
11772;DHT22;12556;55.748;13.194;2023-02-22T15:15:15;5.40;99.90
11772;DHT22;12556;55.748;13.194;2023-02-22T15:17:47;5.40;99.90
11772;DHT22;12556;55.748;13.194;2023-02-22T15:20:16;5.30;99.90
11772;DHT22;12556;55.748;13.194;2023-02-22T15:22:45;5.20;99.90
11772;DHT22;12556;55.748;13.194;2023-02-22T15:25:13;5.10;99.90
11772;DHT22;12556;55.748;13.194;2023-02-22T15:27:44;5.10;99.90
11772;DHT22;12556;55.748;13.194;2023-02-22T15:30:21;5.00;99.90
11772;DHT22;12556;55.748;13.194;2023-02-22T15:32:51;5.00;99.90
11772;DHT22;12556;55.748;13.194;2023-02-22T15:35:25;4.90;99.90
11772;DHT22;12556;55.748;13.194;2023-02-22T15:37:59;4.90;99.90
11772;DHT22;12556;55.748;13.194;2023-02-22T15:40:26;4.80;99.90
11772;DHT22;12556;55.748;13.194;2023-02-22T15:42:59;4.80;99.90
11772;DHT22;12556;55.748;13.194;2023-02-22T15:45:27;4.70;99.90
11772;DHT22;12556;55.748;13.194;2023-02-22T15:47:55;4.70;99.90
11772;DHT22;12556;55.748;13.194;2023-02-22T15:50:25;4.60;99.90
11772;DHT22;12556;55.748;13.194;2023-02-22T15:52:55;4.50;99.90
11772;DHT22;12556;55.748;13.194;2023-02-22T15:55:26;4.50;99.90
11772;DHT22;12556;55.748;13.194;2023-02-22T15:57:54;4.40;99.90
11772;DHT22;12556;55.748;13.194;2023-02-22T16:00:24;4.30;99.90
11772;DHT22;12556;55.748;13.194;2023-02-22T16:02:58;4.30;99.90
11772;DHT22;12556;55.748;13.194;2023-02-22T16:05:34;4.20;99.90
11772;DHT22;12556;55.748;13.194;2023-02-22T16:08:06;4.20;99.90
11772;DHT22;12556;55.748;13.194;2023-02-22T16:10:34;4.10;99.90